Time;durP1;ratioP1;P1;durP2;ratioP2;P2;SDS_P1;SDS_P2;PMS_P1;PMS_P2;Temp;Humidity;BMP_temperature;BMP_pressure;BME280_temperature;BME280_humidity;BME280_pressure;Samples;Min_cycle;Max_cycle;Signal;HPM_P1;HPM_P2
2023/01/06 00:00:42;;;;;;;15.33;6.53;;;7.00;99.90;;;;;;5027148;28;20419;-58
2023/01/06 00:03:08;;;;;;;12.07;5.67;;;7.00;99.90;;;;;;5022753;28;20222;-58
2023/01/06 00:05:34;;;;;;;12.43;5.77;;;7.00;99.90;;;;;;5041536;28;20657;-59
2023/01/06 00:08:00;;;;;;;10.73;5.60;;;7.00;99.90;;;;;;5021386;28;20492;-58
2023/01/06 00:10:26;;;;;;;8.80;5.57;;;7.00;99.90;;;;;;5030461;28;20183;-57
2023/01/06 00:12:52;;;;;;;11.50;5.70;;;7.00;99.90;;;;;;5025445;28;20206;-58
2023/01/06 00:15:18;;;;;;;8.60;5.30;;;6.90;99.90;;;;;;5029204;28;20431;-57
2023/01/06 00:17:44;;;;;;;11.23;5.13;;;6.90;99.90;;;;;;5014236;28;20451;-58
2023/01/06 00:20:11;;;;;;;14.83;5.50;;;6.90;99.90;;;;;;5029427;28;20480;-58
2023/01/06 00:22:40;;;;;;;25.80;6.43;;;6.80;99.90;;;;;;5022525;28;20430;-58
2023/01/06 00:25:09;;;;;;;16.70;5.70;;;6.80;99.90;;;;;;5013161;28;21061;-59
2023/01/06 00:27:34;;;;;;;14.20;7.00;;;6.80;99.90;;;;;;5026679;28;20506;-59
2023/01/06 00:30:00;;;;;;;27.37;6.50;;;6.80;99.90;;;;;;5028076;28;20434;-59
2023/01/06 00:32:25;;;;;;;45.33;7.10;;;6.90;99.90;;;;;;5024948;28;20222;-59
2023/01/06 00:34:51;;;;;;;55.63;10.40;;;6.80;99.90;;;;;;5023968;28;20254;-59
2023/01/06 00:37:17;;;;;;;56.60;10.53;;;6.80;99.90;;;;;;5033841;28;20195;-58
2023/01/06 00:39:42;;;;;;;42.40;10.67;;;6.90;99.90;;;;;;5024424;28;20520;-58
2023/01/06 00:42:08;;;;;;;57.07;11.47;;;6.80;99.90;;;;;;5028286;28;20176;-59
2023/01/06 00:44:36;;;;;;;75.37;11.50;;;6.80;99.90;;;;;;5020772;28;20184;-60
2023/01/06 00:47:06;;;;;;;36.77;11.13;;;6.80;99.90;;;;;;5027411;28;20222;-58
2023/01/06 00:49:31;;;;;;;39.07;10.07;;;6.80;99.90;;;;;;5035037;28;20434;-59
2023/01/06 00:51:57;;;;;;;30.67;9.90;;;6.80;99.90;;;;;;5030804;28;20460;-59
2023/01/06 00:54:23;;;;;;;44.40;10.10;;;6.80;99.90;;;;;;5016295;28;20176;-59
2023/01/06 00:56:50;;;;;;;41.70;12.07;;;6.80;99.90;;;;;;5027809;28;20192;-59
2023/01/06 00:59:19;;;;;;;48.70;11.00;;;6.80;99.90;;;;;;5032886;28;20438;-59
2023/01/06 01:01:47;;;;;;;48.50;10.90;;;6.90;99.90;;;;;;5029093;28;20706;-59
2023/01/06 01:04:13;;;;;;;62.57;11.60;;;6.90;99.90;;;;;;5032067;28;20429;-58
2023/01/06 01:06:41;;;;;;;75.47;11.97;;;6.90;99.90;;;;;;5033163;28;20458;-59
2023/01/06 01:09:07;;;;;;;24.07;8.70;;;6.90;99.90;;;;;;5024513;28;20901;-59
2023/01/06 01:14:19;;;;;;;22.40;8.90;;;6.90;99.90;;;;;;5025507;28;20191;-59
2023/01/06 01:16:45;;;;;;;29.03;8.60;;;6.90;99.90;;;;;;5023951;28;20454;-59
2023/01/06 01:19:11;;;;;;;40.87;8.57;;;6.80;99.90;;;;;;5032241;28;20430;-60
2023/01/06 01:21:37;;;;;;;45.57;10.40;;;6.90;99.90;;;;;;5022034;28;20429;-59
2023/01/06 01:24:03;;;;;;;72.10;10.60;;;6.90;99.90;;;;;;5034874;28;20424;-60
2023/01/06 01:26:29;;;;;;;55.57;9.83;;;6.90;99.90;;;;;;5018647;28;20478;-59
2023/01/06 01:28:55;;;;;;;37.90;10.20;;;6.90;99.90;;;;;;5027411;28;20175;-60
2023/01/06 01:31:20;;;;;;;41.80;9.00;;;6.90;99.90;;;;;;5030709;28;21350;-59
2023/01/06 01:33:46;;;;;;;52.60;9.77;;;6.90;99.90;;;;;;5022857;28;20169;-58
2023/01/06 01:36:14;;;;;;;41.73;10.10;;;6.90;99.90;;;;;;5028374;28;20275;-59
2023/01/06 01:38:40;;;;;;;86.83;11.33;;;6.90;99.90;;;;;;5018877;28;20177;-59
2023/01/06 01:41:08;;;;;;;54.53;10.60;;;6.90;99.90;;;;;;5026648;28;20473;-58
2023/01/06 01:43:47;;;;;;;55.10;9.57;;;6.80;99.90;;;;;;5017255;28;20982;-58
2023/01/06 01:46:16;;;;;;;36.47;9.10;;;6.80;99.90;;;;;;5019414;28;20484;-58
2023/01/06 01:48:42;;;;;;;35.63;8.47;;;6.80;99.90;;;;;;5027599;28;20422;-59
2023/01/06 01:51:12;;;;;;;21.30;7.27;;;6.80;99.90;;;;;;5025951;28;20438;-57
2023/01/06 01:53:42;;;;;;;39.53;9.40;;;6.80;99.90;;;;;;5022363;28;20200;-57
2023/01/06 01:56:13;;;;;;;54.13;10.10;;;6.80;99.90;;;;;;5024936;28;20474;-57
2023/01/06 01:58:52;;;;;;;74.20;9.77;;;6.80;99.90;;;;;;5011443;28;20526;-58
2023/01/06 02:01:19;;;;;;;31.70;8.87;;;6.80;99.90;;;;;;5012797;28;20411;-57
2023/01/06 02:03:44;;;;;;;68.57;9.10;;;6.80;99.90;;;;;;5023746;28;20437;-57
2023/01/06 02:06:14;;;;;;;37.70;8.33;;;6.80;99.90;;;;;;5021978;28;20430;-58
2023/01/06 02:08:48;;;;;;;38.47;8.40;;;6.80;99.90;;;;;;5022206;28;20270;-58
2023/01/06 02:11:13;;;;;;;37.80;7.03;;;6.80;99.90;;;;;;5017874;28;20490;-58
2023/01/06 02:13:43;;;;;;;32.27;7.00;;;6.80;99.90;;;;;;5029281;28;20470;-59
2023/01/06 02:16:08;;;;;;;44.90;8.17;;;6.80;99.90;;;;;;5025189;28;20176;-57
2023/01/06 02:18:43;;;;;;;45.17;7.27;;;6.80;99.90;;;;;;5029298;28;20922;-58
2023/01/06 02:21:29;;;;;;;49.83;8.37;;;6.70;99.90;;;;;;5038357;28;20202;-59
2023/01/06 02:24:15;;;;;;;37.87;6.90;;;6.70;99.90;;;;;;5023637;28;20492;-59
2023/01/06 02:27:12;;;;;;;45.53;6.20;;;6.70;99.90;;;;;;5033185;28;20519;-58
2023/01/06 02:30:07;;;;;;;49.07;7.37;;;6.70;99.90;;;;;;5030312;28;20468;-59
2023/01/06 02:32:36;;;;;;;21.40;6.60;;;6.70;99.90;;;;;;5028651;28;20458;-57
2023/01/06 02:35:24;;;;;;;40.07;7.00;;;6.70;99.90;;;;;;5020733;28;20426;-59
2023/01/06 02:38:13;;;;;;;13.63;4.90;;;6.70;99.90;;;;;;5029954;28;20503;-58
2023/01/06 02:41:19;;;;;;;42.10;7.07;;;6.70;99.90;;;;;;5027236;28;20984;-58
2023/01/06 02:44:20;;;;;;;31.23;7.13;;;6.70;99.90;;;;;;4946129;28;20445;-58
2023/01/06 02:46:53;;;;;;;33.07;6.90;;;6.70;99.90;;;;;;5015566;28;20465;-58
2023/01/06 02:49:39;;;;;;;18.93;5.43;;;6.70;99.90;;;;;;5015938;28;20418;-58
2023/01/06 02:52:17;;;;;;;30.93;6.70;;;6.70;99.90;;;;;;5024691;28;21002;-58
2023/01/06 02:55:01;;;;;;;23.57;6.33;;;6.70;99.90;;;;;;5027237;28;20511;-59
2023/01/06 02:57:50;;;;;;;58.33;8.53;;;6.70;99.90;;;;;;5016256;28;20507;-58
2023/01/06 03:00:34;;;;;;;32.70;6.83;;;6.70;99.90;;;;;;5007913;28;20457;-58
2023/01/06 03:03:05;;;;;;;33.30;5.57;;;6.70;99.90;;;;;;5027071;28;20430;-58
2023/01/06 03:05:34;;;;;;;13.73;6.33;;;6.60;99.90;;;;;;5018366;28;20497;-58
2023/01/06 03:08:05;;;;;;;29.47;6.03;;;6.60;99.90;;;;;;5036143;28;20462;-58
2023/01/06 03:10:31;;;;;;;18.40;5.87;;;6.70;99.90;;;;;;5035072;28;20429;-58
2023/01/06 03:13:08;;;;;;;17.53;5.40;;;6.70;99.90;;;;;;5024517;28;20457;-58
2023/01/06 03:15:34;;;;;;;34.77;6.10;;;6.70;99.90;;;;;;5016839;28;20436;-58
2023/01/06 03:18:00;;;;;;;22.23;6.70;;;6.70;99.90;;;;;;5026944;28;20455;-59
2023/01/06 03:20:26;;;;;;;14.50;5.50;;;6.70;99.90;;;;;;5012790;28;20470;-59
2023/01/06 03:22:52;;;;;;;35.40;6.47;;;6.70;99.90;;;;;;5019288;28;20470;-59
2023/01/06 03:25:17;;;;;;;21.13;6.87;;;6.70;99.90;;;;;;5026679;28;20218;-59
2023/01/06 03:27:43;;;;;;;13.57;4.83;;;6.70;99.90;;;;;;5033250;28;20199;-58
2023/01/06 03:30:11;;;;;;;14.17;4.50;;;6.70;99.90;;;;;;5029486;28;20184;-58
2023/01/06 03:32:57;;;;;;;12.70;5.00;;;6.60;99.90;;;;;;5026743;28;20199;-59
2023/01/06 03:36:06;;;;;;;11.10;5.30;;;6.60;99.90;;;;;;5025301;28;20445;-59
2023/01/06 03:38:41;;;;;;;45.23;6.30;;;6.60;99.90;;;;;;5024052;28;20805;-59
2023/01/06 03:44:41;;;;;;;24.90;5.03;;;6.60;99.90;;;;;;5025651;28;20798;-58
2023/01/06 03:47:23;;;;;;;21.20;4.73;;;6.60;99.90;;;;;;5008872;28;20467;-58
2023/01/06 03:50:16;;;;;;;9.87;4.80;;;6.50;99.90;;;;;;5022282;28;20438;-59
2023/01/06 03:52:49;;;;;;;33.37;5.13;;;6.50;99.90;;;;;;5026535;28;20462;-59
2023/01/06 03:55:19;;;;;;;35.17;5.40;;;6.50;99.90;;;;;;5029559;28;20489;-58
2023/01/06 03:57:53;;;;;;;45.40;6.37;;;6.50;99.90;;;;;;5025007;28;20434;-59
2023/01/06 04:00:26;;;;;;;12.60;4.50;;;6.50;99.90;;;;;;5026172;28;20406;-58
2023/01/06 04:02:52;;;;;;;16.23;5.37;;;6.50;99.90;;;;;;5019327;28;20437;-59
2023/01/06 04:05:23;;;;;;;44.67;5.83;;;6.50;99.90;;;;;;5020475;28;20415;-59
2023/01/06 04:07:49;;;;;;;17.43;5.00;;;6.50;99.90;;;;;;5027013;28;20442;-58
2023/01/06 04:10:17;;;;;;;36.27;5.37;;;6.50;99.90;;;;;;5023457;28;20545;-59
2023/01/06 04:12:42;;;;;;;14.60;4.40;;;6.40;99.90;;;;;;5020842;28;20568;-58
2023/01/06 04:15:14;;;;;;;20.80;4.83;;;6.40;99.90;;;;;;5024808;28;20446;-58
2023/01/06 04:17:41;;;;;;;78.97;6.57;;;6.40;99.90;;;;;;5015072;28;20188;-58
2023/01/06 04:20:09;;;;;;;34.10;5.50;;;6.40;99.90;;;;;;5016710;28;20454;-58
2023/01/06 04:22:35;;;;;;;9.70;4.83;;;6.30;99.90;;;;;;5020140;28;20435;-58
2023/01/06 04:25:01;;;;;;;39.57;5.47;;;6.30;99.90;;;;;;5025257;28;20817;-58
2023/01/06 04:27:27;;;;;;;24.43;5.17;;;6.30;99.90;;;;;;5036662;28;20912;-59
2023/01/06 04:29:52;;;;;;;60.10;6.10;;;6.30;99.90;;;;;;5031518;28;20464;-58
2023/01/06 04:32:18;;;;;;;25.77;5.10;;;6.30;99.90;;;;;;5033213;28;20670;-58
2023/01/06 04:34:44;;;;;;;42.80;5.40;;;6.30;99.90;;;;;;5020290;28;20175;-58
2023/01/06 04:37:10;;;;;;;14.80;4.00;;;6.30;99.90;;;;;;5021625;28;20191;-59
2023/01/06 04:39:35;;;;;;;39.47;5.10;;;6.30;99.90;;;;;;5032320;28;20266;-58
2023/01/06 04:42:01;;;;;;;65.83;5.77;;;6.30;99.90;;;;;;5022763;28;20998;-59
2023/01/06 04:44:26;;;;;;;20.63;4.10;;;6.30;99.90;;;;;;5027919;28;20643;-59
2023/01/06 04:46:52;;;;;;;19.57;4.47;;;6.30;99.90;;;;;;5024013;28;20220;-58
2023/01/06 04:49:18;;;;;;;80.37;6.67;;;6.20;99.90;;;;;;5030904;28;20192;-59
2023/01/06 04:51:43;;;;;;;52.27;5.50;;;6.20;99.90;;;;;;5019269;28;20172;-58
2023/01/06 04:54:09;;;;;;;52.20;4.90;;;6.20;99.90;;;;;;5014194;28;20177;-58
2023/01/06 04:56:35;;;;;;;34.63;4.90;;;6.10;99.90;;;;;;5022536;28;20196;-58
2023/01/06 04:59:00;;;;;;;92.47;7.23;;;6.10;99.90;;;;;;5024513;28;20251;-58
2023/01/06 05:01:26;;;;;;;18.63;3.63;;;6.10;99.90;;;;;;5031518;28;20188;-57
2023/01/06 05:03:52;;;;;;;176.07;9.13;;;6.10;99.90;;;;;;5033622;28;20246;-58
2023/01/06 05:06:19;;;;;;;30.07;4.03;;;6.00;99.90;;;;;;5029081;28;20446;-58
2023/01/06 05:08:45;;;;;;;110.83;6.83;;;6.00;99.90;;;;;;5034813;28;20993;-59
2023/01/06 05:11:14;;;;;;;107.90;6.90;;;5.90;99.90;;;;;;5029934;28;20823;-58
2023/01/06 05:13:40;;;;;;;41.03;3.83;;;5.90;99.90;;;;;;5029600;28;20472;-59
2023/01/06 05:16:19;;;;;;;55.13;4.47;;;5.80;99.90;;;;;;5020891;28;20431;-57
2023/01/06 05:18:44;;;;;;;19.60;3.03;;;5.80;99.90;;;;;;5026945;28;20442;-58
2023/01/06 05:21:10;;;;;;;72.70;4.97;;;5.80;99.90;;;;;;5025165;28;20927;-58
2023/01/06 05:23:37;;;;;;;32.73;3.80;;;5.80;99.90;;;;;;5024799;28;20183;-57
2023/01/06 05:26:03;;;;;;;21.63;2.70;;;5.80;99.90;;;;;;5017948;28;20611;-58
2023/01/06 05:28:29;;;;;;;47.00;4.10;;;5.80;99.90;;;;;;5030700;28;20458;-58
2023/01/06 05:31:03;;;;;;;19.70;3.07;;;5.80;99.90;;;;;;5026133;28;20442;-60
2023/01/06 05:33:30;;;;;;;22.00;2.93;;;5.80;99.90;;;;;;5024418;28;20207;-58
2023/01/06 05:36:08;;;;;;;13.23;2.80;;;5.80;99.90;;;;;;5028081;28;20523;-59
2023/01/06 05:38:34;;;;;;;23.73;3.10;;;5.80;99.90;;;;;;5029193;28;20454;-59
2023/01/06 05:41:00;;;;;;;29.27;3.83;;;5.80;99.90;;;;;;5045966;28;20514;-58
2023/01/06 05:43:26;;;;;;;121.63;7.00;;;5.80;99.90;;;;;;5024883;28;20218;-58
2023/01/06 05:45:52;;;;;;;25.23;3.27;;;5.80;99.90;;;;;;5014803;28;20451;-57
2023/01/06 05:48:19;;;;;;;122.83;7.23;;;5.70;99.90;;;;;;5015086;28;20466;-58
2023/01/06 05:50:45;;;;;;;39.47;3.70;;;5.70;99.90;;;;;;5027941;28;20429;-59
2023/01/06 05:53:10;;;;;;;63.13;5.60;;;5.70;99.90;;;;;;5024491;28;20465;-59
2023/01/06 05:55:36;;;;;;;26.50;3.13;;;5.60;99.90;;;;;;5021079;28;20310;-58
2023/01/06 05:58:01;;;;;;;25.80;3.70;;;5.60;99.90;;;;;;5028033;28;20673;-58
2023/01/06 06:00:27;;;;;;;4.57;2.70;;;5.70;99.90;;;;;;5020704;28;20180;-58
2023/01/06 06:02:54;;;;;;;32.27;4.40;;;5.70;99.90;;;;;;5019708;28;20180;-59
2023/01/06 06:05:20;;;;;;;12.60;3.63;;;5.70;99.90;;;;;;5016810;28;20172;-58
2023/01/06 06:07:55;;;;;;;25.20;3.60;;;5.70;99.90;;;;;;5023762;28;20960;-58
2023/01/06 06:10:21;;;;;;;30.23;3.90;;;5.70;99.90;;;;;;5025928;28;20433;-58
2023/01/06 06:12:47;;;;;;;15.67;3.90;;;5.60;99.90;;;;;;5011663;28;20991;-58
2023/01/06 06:15:13;;;;;;;20.40;3.80;;;5.60;99.90;;;;;;5022756;28;20445;-58
2023/01/06 06:17:38;;;;;;;25.40;4.97;;;5.60;99.90;;;;;;5023739;28;20202;-58
2023/01/06 06:20:05;;;;;;;45.50;4.27;;;5.60;99.90;;;;;;5028922;28;20168;-58
2023/01/06 06:22:30;;;;;;;26.20;3.30;;;5.60;99.90;;;;;;5031227;28;20179;-58
2023/01/06 06:24:56;;;;;;;4.60;3.00;;;5.60;99.90;;;;;;5029011;28;20970;-58
2023/01/06 06:27:21;;;;;;;10.63;3.40;;;5.50;99.90;;;;;;5026971;28;20204;-58
2023/01/06 06:29:47;;;;;;;22.63;3.37;;;5.50;99.90;;;;;;5026034;28;20171;-58
2023/01/06 06:32:12;;;;;;;15.00;2.77;;;5.40;99.90;;;;;;5025301;28;20191;-59
2023/01/06 06:34:38;;;;;;;9.10;2.90;;;5.40;99.90;;;;;;5028021;28;20176;-59
2023/01/06 06:37:04;;;;;;;7.40;2.40;;;5.30;99.90;;;;;;5024485;28;20203;-58
2023/01/06 06:39:29;;;;;;;6.20;2.87;;;5.30;99.90;;;;;;5031117;28;20171;-59
2023/01/06 06:41:55;;;;;;;5.17;3.13;;;5.40;99.90;;;;;;5019006;28;20187;-57
2023/01/06 06:44:20;;;;;;;45.47;14.47;;;5.40;99.90;;;;;;5024303;28;20567;-58
2023/01/06 06:46:46;;;;;;;26.87;3.83;;;5.50;99.90;;;;;;5009001;28;20234;-59
2023/01/06 06:49:11;;;;;;;12.80;5.20;;;5.40;99.90;;;;;;5010301;28;20179;-58
2023/01/06 06:51:37;;;;;;;12.93;4.87;;;5.40;99.90;;;;;;5017667;28;20176;-56
2023/01/06 06:54:03;;;;;;;7.23;3.97;;;5.40;99.90;;;;;;5020288;28;20167;-56
2023/01/06 06:56:29;;;;;;;5.63;3.50;;;5.50;99.90;;;;;;5019792;28;20179;-57
2023/01/06 06:58:54;;;;;;;7.60;3.63;;;5.50;99.90;;;;;;5013802;28;20533;-56
2023/01/06 07:01:21;;;;;;;21.70;3.13;;;5.50;99.90;;;;;;5015524;28;20187;-56
2023/01/06 07:03:47;;;;;;;5.77;3.37;;;5.60;99.90;;;;;;5018384;28;20190;-58
2023/01/06 07:06:18;;;;;;;10.57;4.00;;;5.60;99.90;;;;;;5012513;28;20584;-58
2023/01/06 07:08:45;;;;;;;5.87;3.87;;;5.60;99.90;;;;;;5017564;28;20446;-58
2023/01/06 07:11:11;;;;;;;6.70;4.30;;;5.60;99.90;;;;;;5015646;28;20430;-58
2023/01/06 07:13:37;;;;;;;10.40;4.30;;;5.70;99.90;;;;;;5013457;28;20529;-59
2023/01/06 07:16:03;;;;;;;8.03;4.70;;;5.70;99.90;;;;;;5017233;28;20423;-58
2023/01/06 07:18:28;;;;;;;6.40;3.57;;;5.70;99.90;;;;;;5015520;28;20196;-58
2023/01/06 07:20:54;;;;;;;8.37;4.70;;;5.70;99.90;;;;;;5006730;28;20439;-56
2023/01/06 07:23:21;;;;;;;10.00;5.43;;;5.70;99.90;;;;;;5017336;28;20190;-58
2023/01/06 07:25:58;;;;;;;7.53;5.50;;;5.80;99.90;;;;;;5018287;28;20211;-61
2023/01/06 07:28:25;;;;;;;11.33;4.80;;;5.80;99.90;;;;;;5014960;28;20483;-58
2023/01/06 07:30:50;;;;;;;8.60;5.67;;;5.80;99.90;;;;;;5015589;28;20427;-57
2023/01/06 07:33:16;;;;;;;16.00;5.20;;;5.80;99.90;;;;;;5016049;28;21009;-60
2023/01/06 07:35:42;;;;;;;15.50;5.70;;;5.80;99.90;;;;;;5008984;28;20178;-58
2023/01/06 07:38:08;;;;;;;17.60;5.57;;;5.80;99.90;;;;;;5018934;28;20770;-58
2023/01/06 07:40:34;;;;;;;12.80;5.10;;;5.80;99.90;;;;;;5010781;28;20172;-59
2023/01/06 07:43:08;;;;;;;17.20;4.70;;;5.80;99.90;;;;;;5012499;28;20212;-59
2023/01/06 07:45:34;;;;;;;27.90;4.70;;;5.80;99.90;;;;;;5010431;28;20966;-59
2023/01/06 07:47:59;;;;;;;14.50;3.93;;;5.80;99.90;;;;;;5012791;28;20482;-58
2023/01/06 07:50:26;;;;;;;10.83;3.23;;;5.90;99.90;;;;;;5027657;28;20441;-58
2023/01/06 07:52:52;;;;;;;57.53;6.73;;;5.90;99.90;;;;;;5027018;28;20746;-59
2023/01/06 07:55:17;;;;;;;23.43;5.33;;;5.90;99.90;;;;;;5025813;28;20450;-59
2023/01/06 07:57:43;;;;;;;36.17;5.50;;;5.90;99.90;;;;;;5016697;28;21311;-58
2023/01/06 08:00:09;;;;;;;27.17;5.27;;;5.90;99.90;;;;;;5012109;28;20179;-58
2023/01/06 08:02:35;;;;;;;17.13;4.27;;;5.90;99.90;;;;;;5035327;28;20656;-58
2023/01/06 08:05:00;;;;;;;10.73;3.70;;;5.90;99.90;;;;;;5022037;28;20431;-58
2023/01/06 08:07:26;;;;;;;21.10;4.10;;;5.90;99.90;;;;;;5024149;28;20254;-59
2023/01/06 08:09:52;;;;;;;28.93;3.90;;;5.90;99.90;;;;;;5026877;28;20547;-58
2023/01/06 08:12:17;;;;;;;12.73;4.40;;;5.90;99.90;;;;;;5030675;28;20194;-58
2023/01/06 08:14:43;;;;;;;5.27;3.83;;;5.90;99.90;;;;;;5028476;28;20733;-58
2023/01/06 08:17:08;;;;;;;12.40;5.50;;;5.90;99.90;;;;;;5027977;28;20246;-59
2023/01/06 08:19:34;;;;;;;9.83;3.57;;;6.00;99.90;;;;;;5021601;28;20172;-58
2023/01/06 08:22:00;;;;;;;7.53;3.53;;;6.00;99.90;;;;;;5010192;28;20180;-58
2023/01/06 08:24:26;;;;;;;8.43;3.43;;;6.00;99.90;;;;;;5025710;28;20179;-58
2023/01/06 08:26:51;;;;;;;7.03;3.50;;;6.10;99.90;;;;;;5023542;28;20454;-59
2023/01/06 08:29:17;;;;;;;4.37;3.10;;;6.10;99.90;;;;;;5019517;28;20180;-58
2023/01/06 08:31:43;;;;;;;5.50;3.20;;;6.10;99.90;;;;;;5021281;28;20304;-58
2023/01/06 08:34:10;;;;;;;7.57;3.97;;;6.10;99.90;;;;;;5028538;28;20202;-60
2023/01/06 08:36:36;;;;;;;6.30;3.53;;;6.10;99.90;;;;;;5025454;28;20353;-60
2023/01/06 08:39:01;;;;;;;13.73;4.13;;;6.10;99.90;;;;;;5026081;28;21046;-58
2023/01/06 08:41:27;;;;;;;6.87;3.97;;;6.20;99.90;;;;;;5021259;28;20196;-58
2023/01/06 08:43:54;;;;;;;5.70;3.80;;;6.20;99.90;;;;;;5036401;28;20211;-58
2023/01/06 08:46:20;;;;;;;8.00;5.17;;;6.20;99.90;;;;;;5019643;28;20292;-58
2023/01/06 08:48:46;;;;;;;6.20;4.27;;;6.30;99.90;;;;;;5045828;28;20516;-57
2023/01/06 08:51:15;;;;;;;9.23;4.73;;;6.30;99.90;;;;;;5032789;28;20172;-58
2023/01/06 08:53:42;;;;;;;6.83;4.00;;;6.30;99.90;;;;;;5037082;28;20466;-59
2023/01/06 08:56:22;;;;;;;8.00;2.80;;;6.30;99.90;;;;;;5027048;28;20440;-58
2023/01/06 08:58:57;;;;;;;2.87;2.50;;;6.30;99.90;;;;;;5020833;28;21190;-59
2023/01/06 09:01:25;;;;;;;4.27;2.97;;;6.40;99.90;;;;;;5027531;28;21122;-58
2023/01/06 09:03:51;;;;;;;2.73;2.47;;;6.40;99.90;;;;;;5030258;28;20443;-60
2023/01/06 09:06:18;;;;;;;2.83;2.53;;;6.40;99.90;;;;;;5030518;28;20447;-59
2023/01/06 09:08:45;;;;;;;3.43;2.70;;;6.40;99.90;;;;;;5035460;28;20784;-59
2023/01/06 09:11:11;;;;;;;4.57;3.47;;;6.40;99.90;;;;;;5026911;28;21178;-58
2023/01/06 09:13:37;;;;;;;3.03;2.50;;;6.50;99.90;;;;;;5019351;28;20458;-58
2023/01/06 09:16:07;;;;;;;3.07;2.70;;;6.50;99.90;;;;;;5025863;28;20483;-59
2023/01/06 09:18:34;;;;;;;2.77;2.30;;;6.60;99.90;;;;;;5028524;28;20457;-59
2023/01/06 09:20:59;;;;;;;2.03;1.83;;;6.70;99.90;;;;;;5023996;28;20417;-60
2023/01/06 09:23:26;;;;;;;4.17;2.50;;;6.70;99.90;;;;;;5034626;28;20434;-60
2023/01/06 09:25:53;;;;;;;2.60;2.40;;;6.70;99.90;;;;;;5022921;28;20276;-58
2023/01/06 09:28:18;;;;;;;3.13;2.80;;;6.80;99.90;;;;;;5032477;28;20458;-59
2023/01/06 09:30:45;;;;;;;3.37;2.77;;;6.80;99.90;;;;;;5019165;28;20440;-60
2023/01/06 09:33:11;;;;;;;3.70;2.93;;;6.80;99.90;;;;;;5023873;28;20207;-60
2023/01/06 09:35:37;;;;;;;4.90;3.70;;;6.90;99.90;;;;;;5027100;28;20561;-58
2023/01/06 09:38:02;;;;;;;5.83;3.57;;;6.90;99.90;;;;;;5021794;28;20197;-60
2023/01/06 09:40:58;;;;;;;4.27;3.47;;;6.90;99.90;;;;;;5022958;28;20190;-60
2023/01/06 09:44:01;;;;;;;3.73;2.80;;;6.90;99.90;;;;;;5012991;28;20188;-59
2023/01/06 09:46:35;;;;;;;3.23;2.93;;;7.00;99.90;;;;;;5016307;28;20456;-60
2023/01/06 09:49:24;;;;;;;3.87;3.23;;;7.00;99.90;;;;;;5018605;28;20419;-60
2023/01/06 09:51:55;;;;;;;3.80;3.10;;;7.00;99.90;;;;;;5027113;28;20435;-59
2023/01/06 09:54:34;;;;;;;4.77;3.60;;;7.00;99.90;;;;;;5017787;28;20470;-57
2023/01/06 09:57:09;;;;;;;4.33;3.40;;;7.00;99.90;;;;;;5023115;28;20426;-60
2023/01/06 09:59:48;;;;;;;4.20;3.50;;;7.10;99.90;;;;;;5023255;28;20430;-60
2023/01/06 10:02:23;;;;;;;4.40;3.10;;;7.10;99.90;;;;;;5017815;28;20437;-59
2023/01/06 10:04:48;;;;;;;3.80;3.27;;;7.10;99.90;;;;;;5035392;28;20425;-58
2023/01/06 10:07:14;;;;;;;4.50;3.43;;;7.10;99.90;;;;;;5022568;28;20477;-59
2023/01/06 10:09:51;;;;;;;4.90;3.50;;;7.20;99.90;;;;;;5013737;28;20184;-60
2023/01/06 10:12:59;;;;;;;5.23;3.93;;;7.20;99.90;;;;;;5019983;28;20203;-59
2023/01/06 10:15:34;;;;;;;5.43;3.30;;;7.30;99.90;;;;;;5015092;28;20438;-58
2023/01/06 10:18:24;;;;;;;5.23;3.27;;;7.30;99.90;;;;;;5028958;28;20903;-59
2023/01/06 10:20:53;;;;;;;5.80;3.37;;;7.40;99.90;;;;;;5031887;28;20431;-59
2023/01/06 10:23:47;;;;;;;4.90;3.70;;;7.40;99.90;;;;;;5028062;28;20423;-60
2023/01/06 10:26:20;;;;;;;4.13;3.07;;;7.40;99.90;;;;;;5020307;28;20462;-59
2023/01/06 10:28:53;;;;;;;4.60;3.57;;;7.40;99.90;;;;;;5022383;28;20521;-59
2023/01/06 10:31:25;;;;;;;2.90;2.60;;;7.40;99.90;;;;;;5024072;28;20430;-61
2023/01/06 10:33:53;;;;;;;2.77;2.57;;;7.50;99.90;;;;;;5029866;28;20469;-58
2023/01/06 10:36:38;;;;;;;3.17;2.80;;;7.50;99.90;;;;;;5038129;28;20418;-59
2023/01/06 10:39:12;;;;;;;3.00;2.70;;;7.50;99.90;;;;;;5025536;28;20414;-59
2023/01/06 10:41:42;;;;;;;5.13;3.60;;;7.50;99.90;;;;;;5036559;28;20950;-58
2023/01/06 10:44:10;;;;;;;3.53;3.17;;;7.60;99.90;;;;;;5018716;28;20415;-58
2023/01/06 10:46:36;;;;;;;3.40;3.03;;;7.60;99.90;;;;;;5021044;28;20495;-59
2023/01/06 10:49:05;;;;;;;3.80;3.00;;;7.60;99.90;;;;;;5019639;28;20872;-57
2023/01/06 10:51:47;;;;;;;6.60;3.70;;;7.60;99.90;;;;;;5030351;28;20957;-58
2023/01/06 10:54:26;;;;;;;4.13;3.73;;;7.70;99.90;;;;;;5034396;28;21026;-59
2023/01/06 10:57:03;;;;;;;2.90;2.67;;;7.70;99.90;;;;;;5019194;28;21011;-59
2023/01/06 10:59:31;;;;;;;2.87;2.57;;;7.70;99.90;;;;;;5023050;28;20449;-58
2023/01/06 11:01:57;;;;;;;10.63;3.37;;;7.70;99.90;;;;;;5026466;28;20475;-59
2023/01/06 11:04:25;;;;;;;3.10;2.80;;;7.70;99.90;;;;;;5020795;28;21018;-58
2023/01/06 11:06:53;;;;;;;3.27;2.97;;;7.80;99.90;;;;;;5042577;28;20196;-60
2023/01/06 11:09:38;;;;;;;2.60;2.40;;;7.70;99.90;;;;;;5021107;28;20438;-59
2023/01/06 11:12:25;;;;;;;3.30;2.90;;;7.80;99.90;;;;;;5024744;28;20466;-58
2023/01/06 11:15:04;;;;;;;3.40;3.10;;;7.80;99.90;;;;;;5023939;28;20529;-61
2023/01/06 11:17:31;;;;;;;3.57;2.90;;;7.80;99.90;;;;;;5020908;28;20450;-59
2023/01/06 11:20:12;;;;;;;7.37;4.00;;;7.90;99.90;;;;;;5023187;28;20427;-59
2023/01/06 11:22:39;;;;;;;5.23;3.00;;;7.90;99.90;;;;;;5022591;28;20801;-59
2023/01/06 11:25:20;;;;;;;3.33;2.60;;;7.90;99.90;;;;;;5022403;28;20445;-59
2023/01/06 11:28:08;;;;;;;5.30;2.80;;;8.00;99.90;;;;;;5018223;28;20838;-60
2023/01/06 11:30:40;;;;;;;2.83;2.50;;;8.00;99.90;;;;;;5023239;28;20519;-61
2023/01/06 11:33:34;;;;;;;3.50;2.90;;;8.00;99.90;;;;;;5012695;28;20463;-59
2023/01/06 11:36:10;;;;;;;3.23;2.40;;;8.00;99.90;;;;;;5022141;28;20441;-61
2023/01/06 11:38:49;;;;;;;3.70;3.10;;;8.00;99.90;;;;;;5024624;28;20984;-61
2023/01/06 11:41:42;;;;;;;4.03;2.80;;;8.00;99.90;;;;;;5023655;28;20434;-60
2023/01/06 11:44:40;;;;;;;3.13;2.50;;;8.00;99.90;;;;;;5024321;28;20438;-61
2023/01/06 11:47:15;;;;;;;2.83;2.60;;;8.10;99.90;;;;;;5011973;28;20477;-59
2023/01/06 11:49:45;;;;;;;5.00;3.13;;;8.10;99.90;;;;;;5015369;28;20460;-59
2023/01/06 11:52:16;;;;;;;2.90;2.63;;;8.10;99.90;;;;;;5024995;28;20455;-59
2023/01/06 11:54:43;;;;;;;3.00;2.70;;;8.20;99.90;;;;;;5026826;28;20438;-61
2023/01/06 11:57:18;;;;;;;3.70;2.77;;;8.20;99.90;;;;;;5023825;28;20978;-60
2023/01/06 12:00:00;;;;;;;3.00;2.70;;;8.20;99.90;;;;;;5020159;28;20510;-60
2023/01/06 12:02:43;;;;;;;3.60;2.70;;;8.20;99.90;;;;;;5016852;28;20430;-60
2023/01/06 12:05:35;;;;;;;3.43;2.70;;;8.30;99.90;;;;;;5019831;28;20438;-60
2023/01/06 12:08:07;;;;;;;3.13;2.20;;;8.30;99.90;;;;;;5026424;28;20849;-59
2023/01/06 12:10:34;;;;;;;1.80;1.70;;;8.30;99.90;;;;;;5028061;28;20442;-58
2023/01/06 12:13:00;;;;;;;2.50;2.27;;;8.40;99.90;;;;;;5018075;28;21040;-61
2023/01/06 12:15:29;;;;;;;2.50;2.30;;;8.40;99.90;;;;;;5018402;28;20431;-58
2023/01/06 12:18:03;;;;;;;2.30;2.10;;;8.40;99.90;;;;;;5020963;28;20294;-59
2023/01/06 12:20:35;;;;;;;2.50;2.30;;;8.50;99.90;;;;;;5029832;28;20825;-59
2023/01/06 12:23:23;;;;;;;6.60;3.80;;;8.60;99.90;;;;;;5024147;28;20579;-58
2023/01/06 12:25:53;;;;;;;3.20;2.90;;;8.60;99.90;;;;;;5013672;28;20982;-60
2023/01/06 12:28:19;;;;;;;3.17;2.50;;;8.70;99.90;;;;;;5017361;28;20512;-60
2023/01/06 12:30:49;;;;;;;4.30;2.40;;;8.80;99.90;;;;;;5020194;28;20466;-60
2023/01/06 12:33:28;;;;;;;3.23;2.77;;;8.80;99.90;;;;;;5023461;28;20207;-62
2023/01/06 12:36:01;;;;;;;3.37;2.30;;;8.80;99.90;;;;;;5010931;28;20443;-61
2023/01/06 12:38:45;;;;;;;2.97;2.67;;;8.90;99.90;;;;;;5012922;28;20983;-60
2023/01/06 12:41:24;;;;;;;5.50;2.10;;;8.90;99.90;;;;;;5015177;28;20950;-60
2023/01/06 12:44:02;;;;;;;2.20;2.00;;;8.80;99.90;;;;;;5017226;28;20438;-59
2023/01/06 12:46:40;;;;;;;3.20;1.90;;;8.80;99.90;;;;;;5007100;28;20450;-59
2023/01/06 12:49:34;;;;;;;1.97;1.77;;;8.80;99.90;;;;;;5016782;28;20426;-61
2023/01/06 12:52:06;;;;;;;2.03;1.80;;;8.80;99.90;;;;;;5005528;28;20811;-58
2023/01/06 12:54:36;;;;;;;2.70;2.50;;;8.80;99.90;;;;;;5018553;28;20946;-60
2023/01/06 12:57:43;;;;;;;2.30;2.10;;;8.80;99.90;;;;;;5012303;28;21062;-60
2023/01/06 13:00:38;;;;;;;2.90;2.27;;;8.80;99.90;;;;;;5000164;28;20449;-59
2023/01/06 13:03:21;;;;;;;1.77;1.57;;;8.80;99.90;;;;;;5019286;28;20525;-59
2023/01/06 13:06:07;;;;;;;2.40;2.20;;;8.90;99.90;;;;;;5010810;28;20489;-58
2023/01/06 13:08:45;;;;;;;2.63;1.90;;;8.90;99.90;;;;;;5021012;28;20456;-60
2023/01/06 13:11:25;;;;;;;1.70;1.60;;;8.90;99.90;;;;;;5020202;28;20444;-58
2023/01/06 13:14:07;;;;;;;2.37;2.03;;;8.90;99.90;;;;;;5023445;28;20504;-60
2023/01/06 13:16:49;;;;;;;2.27;2.07;;;8.90;99.90;;;;;;5018120;28;20442;-60